Time;durP1;ratioP1;P1;durP2;ratioP2;P2;SDS_P1;SDS_P2;PMS_P1;PMS_P2;Temp;Humidity;BMP_temperature;BMP_pressure;BME280_temperature;BME280_humidity;BME280_pressure;Samples;Min_cycle;Max_cycle;Signal;HPM_P1;HPM_P2
2022/12/10 00:02:00;;;;;;;8.13;7.32;;;;;;;2.09;83.14;97626.69;5107166;28;20288;-73
2022/12/10 00:04:26;;;;;;;8.55;6.90;;;;;;;3.01;83.19;97777.31;5106696;28;20074;-72
2022/12/10 00:06:53;;;;;;;7.93;7.13;;;;;;;3.01;83.12;97777.31;5105894;28;20220;-73
2022/12/10 00:09:21;;;;;;;8.13;6.47;;;;;;;3.02;83.08;97778.16;5106271;28;20047;-73
2022/12/10 00:11:48;;;;;;;9.63;7.25;;;;;;;3.02;83.09;97786.84;5106448;28;20043;-73
2022/12/10 00:14:16;;;;;;;9.57;8.57;;;;;;;3.02;83.00;97786.00;5106453;28;20051;-72
2022/12/10 00:16:44;;;;;;;7.53;6.70;;;;;;;3.00;83.08;97783.47;5106641;28;20246;-72
2022/12/10 00:19:11;;;;;;;7.70;6.82;;;;;;;3.02;83.04;97772.91;5106219;28;20040;-72
2022/12/10 00:21:38;;;;;;;8.50;7.70;;;;;;;3.03;82.97;97788.53;5105428;28;20204;-72
2022/12/10 00:24:06;;;;;;;8.57;7.35;;;;;;;3.00;82.93;97778.22;5106227;28;20372;-72
2022/12/10 00:26:35;;;;;;;7.53;6.47;;;;;;;2.97;82.77;97773.16;5105406;28;20349;-72
2022/12/10 00:29:03;;;;;;;8.77;7.38;;;;;;;2.74;82.69;97753.34;5106206;28;20036;-72
2022/12/10 00:31:31;;;;;;;6.93;6.22;;;;;;;2.96;82.90;97791.53;5106417;28;20289;-72
2022/12/10 00:34:01;;;;;;;6.75;6.05;;;;;;;2.78;83.22;97762.75;5105316;28;20081;-73
2022/12/10 00:36:31;;;;;;;7.20;6.30;;;;;;;2.96;82.87;97781.91;5106317;28;20039;-72
2022/12/10 00:38:58;;;;;;;7.65;6.57;;;;;;;2.95;82.75;97797.69;5106280;28;20048;-73
2022/12/10 00:41:25;;;;;;;8.23;7.43;;;;;;;2.94;83.06;97786.38;5106303;28;20272;-72
2022/12/10 00:43:51;;;;;;;8.40;6.78;;;;;;;2.95;82.95;97793.31;5105389;28;20199;-72
2022/12/10 00:46:19;;;;;;;6.90;6.20;;;;;;;2.74;82.92;97758.59;5105084;28;20192;-72
2022/12/10 00:48:46;;;;;;;7.90;6.88;;;;;;;2.54;82.75;97728.16;5105059;28;20089;-72
2022/12/10 00:51:16;;;;;;;8.05;6.72;;;;;;;2.95;82.86;97808.16;5106150;28;20296;-71
2022/12/10 00:53:44;;;;;;;7.82;7.03;;;;;;;2.98;82.95;97813.25;5105843;28;20044;-72
2022/12/10 00:56:13;;;;;;;7.53;6.70;;;;;;;2.97;82.63;97817.63;5106342;28;20043;-72
2022/12/10 00:58:40;;;;;;;6.90;6.20;;;;;;;2.96;82.77;97834.25;5104940;28;20032;-72
2022/12/10 01:01:12;;;;;;;7.18;6.50;;;;;;;2.80;82.58;97807.13;5106371;28;20052;-72
2022/12/10 01:03:39;;;;;;;7.82;6.97;;;;;;;2.96;82.46;97836.03;5106004;28;20044;-72
2022/12/10 01:06:16;;;;;;;8.27;7.22;;;;;;;2.95;82.62;97829.94;5105708;28;20094;-72
2022/12/10 01:08:43;;;;;;;7.13;6.43;;;;;;;2.97;82.62;97816.78;5105922;28;20227;-73
2022/12/10 01:11:11;;;;;;;7.93;7.13;;;;;;;2.96;82.56;97815.94;5105659;28;20055;-72
2022/12/10 01:13:38;;;;;;;8.98;6.65;;;;;;;-0.70;82.00;97576.25;5105887;28;20093;-72
2022/12/10 01:16:06;;;;;;;8.07;7.28;;;;;;;2.94;82.55;97815.16;5106151;28;20208;-72
2022/12/10 01:18:34;;;;;;;7.90;6.85;;;;;;;2.56;82.54;97762.09;5109629;28;20284;-73
2022/12/10 01:21:02;;;;;;;7.82;7.00;;;;;;;2.93;82.59;97820.47;5109781;28;20051;-72
2022/12/10 01:23:32;;;;;;;7.47;6.78;;;;;;;2.92;82.55;97824.00;5109732;28;20051;-72
2022/12/10 01:26:01;;;;;;;7.13;6.15;;;;;;;2.92;82.24;97817.00;5109743;28;20043;-73
2022/12/10 01:28:30;;;;;;;7.03;6.25;;;;;;;2.89;82.42;97804.06;5109963;28;20040;-72
2022/12/10 01:31:00;;;;;;;7.70;6.82;;;;;;;2.91;82.43;97801.38;5110170;28;20247;-72
2022/12/10 01:33:26;;;;;;;7.38;6.53;;;;;;;2.91;82.46;97801.38;5108767;28;20085;-73
2022/12/10 01:35:53;;;;;;;8.63;6.80;;;;;;;2.91;82.38;97804.84;5109459;28;20262;-73
2022/12/10 01:38:20;;;;;;;8.07;6.75;;;;;;;2.92;82.64;97814.41;5109643;28;20296;-73
2022/12/10 01:40:48;;;;;;;8.15;6.68;;;;;;;2.91;82.26;97815.31;5109977;28;20058;-72
2022/12/10 01:43:16;;;;;;;8.13;7.20;;;;;;;2.93;82.33;97823.09;5109652;28;20044;-72
2022/12/10 01:45:42;;;;;;;8.02;7.18;;;;;;;2.94;82.29;97815.16;5109608;28;20325;-71
2022/12/10 01:48:10;;;;;;;7.88;6.60;;;;;;;2.92;82.14;97818.78;5109277;28;20066;-72
2022/12/10 01:50:36;;;;;;;7.43;6.20;;;;;;;2.93;82.17;97823.09;5108402;28;20185;-72
2022/12/10 01:53:03;;;;;;;8.35;6.47;;;;;;;2.94;82.23;97832.63;5109450;28;20052;-72
2022/12/10 01:55:53;;;;;;;7.72;6.93;;;;;;;2.94;82.01;97820.41;5109414;28;20040;-72
2022/12/10 01:58:20;;;;;;;7.10;6.25;;;;;;;2.93;82.14;97823.09;5104980;28;20056;-72
2022/12/10 02:01:02;;;;;;;8.52;6.80;;;;;;;2.78;82.00;97803.75;5108222;28;20089;-72
2022/12/10 02:03:40;;;;;;;8.90;7.45;;;;;;;2.93;82.12;97844.03;5109009;28;20330;-72
2022/12/10 02:06:22;;;;;;;8.30;6.80;;;;;;;2.69;81.93;97809.44;5109524;28;20165;-73
2022/12/10 02:08:56;;;;;;;7.45;6.72;;;;;;;2.93;81.97;97851.88;5109537;28;20052;-73
2022/12/10 02:11:32;;;;;;;9.02;7.22;;;;;;;2.93;81.81;97841.41;5109157;28;20219;-73
2022/12/10 02:14:03;;;;;;;10.18;7.75;;;;;;;2.92;81.90;97848.41;5109103;28;20043;-73
2022/12/10 02:16:35;;;;;;;7.55;6.53;;;;;;;2.92;81.79;97843.19;5108528;28;20165;-73
2022/12/10 02:19:14;;;;;;;8.32;7.28;;;;;;;2.91;81.69;97843.25;5108154;28;20040;-73
2022/12/10 02:21:43;;;;;;;9.68;7.57;;;;;;;2.91;81.63;97845.88;5108986;28;20071;-73
2022/12/10 02:24:14;;;;;;;7.70;6.90;;;;;;;2.90;81.66;97852.88;5108604;28;20048;-72
2022/12/10 02:26:47;;;;;;;7.93;7.13;;;;;;;2.70;81.65;97808.50;5108851;28;20043;-71
2022/12/10 02:29:17;;;;;;;7.53;6.70;;;;;;;2.85;81.62;97826.09;5107636;28;20044;-72
2022/12/10 02:31:49;;;;;;;7.88;6.80;;;;;;;2.86;81.62;97819.94;5108516;28;20051;-72
2022/12/10 02:34:18;;;;;;;8.57;6.72;;;;;;;2.87;81.82;97824.25;5107398;28;20051;-73
2022/12/10 02:36:48;;;;;;;8.80;7.38;;;;;;;1.78;81.50;97645.56;5108712;28;20051;-72
2022/12/10 02:39:21;;;;;;;8.45;7.03;;;;;;;2.86;81.41;97838.25;5108516;28;20044;-72
2022/12/10 02:41:52;;;;;;;9.25;7.63;;;;;;;2.85;81.38;97833.94;5108280;28;20312;-72
2022/12/10 02:44:22;;;;;;;8.52;7.25;;;;;;;2.84;81.32;97843.56;5108330;28;20044;-72
2022/12/10 02:46:53;;;;;;;8.07;7.25;;;;;;;2.84;81.42;97845.31;5108267;28;20047;-72
2022/12/10 02:49:21;;;;;;;8.57;7.05;;;;;;;2.83;81.33;97844.47;5108381;28;20048;-72
2022/12/10 02:51:48;;;;;;;9.20;7.85;;;;;;;2.85;81.31;97862.72;5107296;28;20051;-72
2022/12/10 02:54:41;;;;;;;10.20;7.20;;;;;;;2.85;81.00;97865.34;5108142;28;20048;-72
2022/12/10 02:57:16;;;;;;;10.43;8.60;;;;;;;2.59;81.13;97822.09;5108268;28;20044;-72
2022/12/10 03:00:01;;;;;;;8.50;7.68;;;;;;;2.71;80.85;97845.06;5108446;28;20048;-72
2022/12/10 03:02:34;;;;;;;9.32;7.20;;;;;;;2.60;81.14;97820.31;5107035;28;20047;-72
2022/12/10 03:05:06;;;;;;;8.52;7.10;;;;;;;2.63;81.10;97833.25;5107059;28;20246;-72
2022/12/10 03:07:39;;;;;;;9.13;7.95;;;;;;;2.27;81.04;97762.63;5107810;28;20044;-72
2022/12/10 03:10:15;;;;;;;10.25;9.02;;;;;;;2.80;80.96;97849.00;5107814;28;20058;-72
2022/12/10 03:12:47;;;;;;;9.30;7.82;;;;;;;2.40;80.67;97775.06;5107744;28;20226;-72
2022/12/10 03:15:16;;;;;;;10.48;8.73;;;;;;;2.82;81.16;97844.53;5107906;28;20056;-72
2022/12/10 03:17:46;;;;;;;8.57;7.25;;;;;;;2.82;81.05;97836.69;5106745;28;20047;-72
2022/12/10 03:20:16;;;;;;;8.13;7.32;;;;;;;2.84;81.05;97840.09;5107773;28;20040;-72
2022/12/10 03:22:47;;;;;;;10.05;8.35;;;;;;;2.82;80.84;97847.16;5107819;28;20097;-71
2022/12/10 03:25:18;;;;;;;9.75;7.25;;;;;;;2.82;80.75;97845.41;5106639;28;20234;-71
2022/12/10 03:27:49;;;;;;;8.85;7.68;;;;;;;2.83;80.89;97838.38;5107669;28;20085;-71
2022/12/10 03:30:18;;;;;;;9.27;7.60;;;;;;;2.82;80.79;97845.41;5106463;28;20036;-72
2022/12/10 03:32:46;;;;;;;11.52;9.60;;;;;;;2.80;80.78;97841.16;5107311;28;20052;-71
2022/12/10 03:35:15;;;;;;;12.27;9.65;;;;;;;2.82;80.78;97850.63;5107067;28;20064;-71
2022/12/10 03:37:42;;;;;;;10.70;8.73;;;;;;;2.83;80.86;97848.84;5107135;28;20165;-72
2022/12/10 03:40:11;;;;;;;10.75;8.80;;;;;;;2.84;80.78;97838.31;5107052;28;20232;-72
2022/12/10 03:42:38;;;;;;;9.23;8.25;;;;;;;2.84;80.76;97848.78;5107084;28;20036;-72
2022/12/10 03:45:07;;;;;;;10.32;9.23;;;;;;;2.85;80.80;97855.72;5107059;28;20051;-71
2022/12/10 03:47:35;;;;;;;10.48;9.27;;;;;;;2.85;80.79;97871.41;5107018;28;20035;-72
2022/12/10 03:50:02;;;;;;;10.15;8.95;;;;;;;2.85;80.73;97871.41;5107301;28;20133;-71
2022/12/10 03:52:28;;;;;;;9.30;7.90;;;;;;;2.85;80.68;97875.78;5106884;28;20052;-72
2022/12/10 03:54:55;;;;;;;10.50;8.95;;;;;;;2.68;80.53;97853.06;5107149;28;20051;-71
2022/12/10 03:57:22;;;;;;;9.75;8.60;;;;;;;2.87;80.56;97887.03;5106853;28;20044;-71
2022/12/10 03:59:49;;;;;;;9.98;8.48;;;;;;;2.71;80.62;97873.00;5106454;28;20044;-73
2022/12/10 04:02:15;;;;;;;12.05;9.40;;;;;;;2.88;80.46;97904.44;5107288;28;20044;-72
2022/12/10 04:04:43;;;;;;;10.52;8.88;;;;;;;2.42;80.46;97833.34;5106924;28;20036;-72
2022/12/10 04:07:10;;;;;;;11.25;9.65;;;;;;;2.86;80.57;97912.34;5106864;28;20048;-72
2022/12/10 04:09:37;;;;;;;10.90;8.32;;;;;;;2.88;80.71;97920.13;5107141;28;20040;-72
2022/12/10 04:12:04;;;;;;;9.63;8.63;;;;;;;1.81;80.24;97734.25;5106848;28;20196;-73
2022/12/10 04:17:12;;;;;;;9.82;8.82;;;;;;;2.89;80.35;97913.97;5084112;28;20056;-73
2022/12/10 04:19:39;;;;;;;10.55;8.50;;;;;;;2.37;80.27;97837.09;5106569;28;20090;-73
2022/12/10 04:27:38;;;;;;;11.03;9.43;;;;;;;2.13;80.41;97824.22;5106615;28;20055;-72
2022/12/10 04:30:06;;;;;;;10.75;9.15;;;;;;;2.86;80.48;97912.34;5105394;28;20051;-72
2022/12/10 04:32:32;;;;;;;10.18;8.63;;;;;;;2.85;80.43;97917.66;5106451;28;20043;-72
2022/12/10 04:34:59;;;;;;;11.50;10.05;;;;;;;2.85;80.37;97925.50;5105744;28;20121;-72
2022/12/10 04:37:28;;;;;;;12.63;9.65;;;;;;;2.86;80.41;97920.22;5106343;28;20052;-72
2022/12/10 04:39:55;;;;;;;10.23;9.20;;;;;;;2.86;80.31;97919.38;5105376;28;20036;-72
2022/12/10 04:42:23;;;;;;;11.38;9.88;;;;;;;2.85;80.27;97913.28;5105167;28;20040;-72
2022/12/10 04:44:50;;;;;;;11.00;9.68;;;;;;;2.87;80.30;97914.06;5105956;28;20056;-72
2022/12/10 04:47:17;;;;;;;11.23;9.77;;;;;;;2.87;80.25;97926.28;5106146;28;20043;-72
2022/12/10 04:49:43;;;;;;;10.20;9.05;;;;;;;2.86;80.22;97911.50;5105082;28;20036;-72
2022/12/10 04:52:13;;;;;;;10.98;9.75;;;;;;;2.70;80.25;97879.13;5105047;28;20105;-72
2022/12/10 04:54:41;;;;;;;11.60;9.60;;;;;;;2.35;80.35;97815.41;5105878;28;20040;-72
2022/12/10 04:57:09;;;;;;;11.50;9.77;;;;;;;2.87;80.34;97902.75;5106106;28;20040;-72
2022/12/10 04:59:36;;;;;;;10.68;9.18;;;;;;;2.71;80.19;97868.59;5106234;28;20043;-73
2022/12/10 05:02:03;;;;;;;10.32;9.05;;;;;;;2.88;80.47;97907.06;5105802;28;20044;-73
2022/12/10 05:04:30;;;;;;;11.18;9.02;;;;;;;2.87;80.33;97900.97;5105728;28;20048;-73
2022/12/10 05:06:57;;;;;;;12.45;10.15;;;;;;;2.90;80.37;97905.22;5105722;28;20192;-73
2022/12/10 05:09:23;;;;;;;11.75;9.93;;;;;;;2.86;80.18;97912.34;5105965;28;20040;-73
2022/12/10 05:11:51;;;;;;;12.98;10.55;;;;;;;2.88;80.17;97910.50;5106058;28;20036;-71
2022/12/10 05:14:18;;;;;;;10.80;9.45;;;;;;;2.89;80.27;97898.28;5105850;28;20055;-70
2022/12/10 05:16:45;;;;;;;11.73;9.88;;;;;;;2.92;80.11;97905.13;5104731;28;20047;-70
2022/12/10 05:19:12;;;;;;;12.88;11.05;;;;;;;2.91;80.20;97891.22;5105499;28;20040;-70
2022/12/10 05:24:23;;;;;;;12.57;10.20;;;;;;;2.91;80.05;97909.53;5105850;28;20106;-71
2022/12/10 05:26:51;;;;;;;11.25;9.57;;;;;;;2.92;80.03;97900.75;5105512;28;20054;-71
2022/12/10 05:29:18;;;;;;;12.80;10.63;;;;;;;2.93;79.94;97907.69;5105620;28;20047;-70
2022/12/10 05:31:45;;;;;;;15.20;11.88;;;;;;;2.94;80.06;97898.06;5105934;28;20040;-70
2022/12/10 05:34:12;;;;;;;13.45;11.60;;;;;;;2.95;79.89;97905.00;5105165;28;20052;-71
2022/12/10 05:36:38;;;;;;;13.38;10.80;;;;;;;2.94;79.85;97891.06;5104457;28;20040;-71
2022/12/10 05:39:05;;;;;;;16.08;12.18;;;;;;;2.96;79.87;97893.59;5105761;28;20346;-71
2022/12/10 05:41:36;;;;;;;13.98;10.75;;;;;;;2.96;79.82;97901.47;5105260;28;20052;-71
2022/12/10 05:44:04;;;;;;;13.23;10.88;;;;;;;2.97;79.74;97903.16;5105192;28;20093;-71
2022/12/10 05:46:32;;;;;;;15.00;11.48;;;;;;;2.98;79.73;97910.94;5105459;28;20036;-70
2022/12/10 05:49:01;;;;;;;22.13;15.68;;;;;;;2.44;79.76;97841.13;5104890;28;20052;-72
2022/12/10 05:51:30;;;;;;;22.67;15.00;;;;;;;2.99;79.88;97911.78;5105359;28;20040;-72
2022/12/10 05:53:58;;;;;;;17.05;12.98;;;;;;;2.98;79.77;97916.16;5105402;28;20051;-71
2022/12/10 05:56:26;;;;;;;14.73;11.65;;;;;;;3.00;79.75;97916.09;5104337;28;20044;-71
2022/12/10 05:58:56;;;;;;;16.20;11.15;;;;;;;2.99;79.57;97909.16;5105361;28;20090;-71
2022/12/10 06:01:27;;;;;;;14.82;11.57;;;;;;;2.97;79.45;97917.09;5104100;28;20085;-71
2022/12/10 06:03:54;;;;;;;13.70;11.27;;;;;;;2.98;79.66;97917.94;5108021;28;20055;-71
2022/12/10 06:06:22;;;;;;;12.85;11.25;;;;;;;2.79;79.37;97897.88;5109457;28;20044;-71
2022/12/10 06:08:49;;;;;;;14.75;11.93;;;;;;;2.97;79.63;97930.16;5108078;28;20040;-71
2022/12/10 06:11:16;;;;;;;12.95;10.73;;;;;;;2.96;79.49;97941.56;5109097;28;20287;-71
2022/12/10 06:13:43;;;;;;;13.07;11.00;;;;;;;2.81;79.77;97911.72;5109292;28;20284;-71
2022/12/10 06:16:11;;;;;;;14.15;11.50;;;;;;;2.97;79.46;97948.50;5108176;28;20082;-71
2022/12/10 06:18:39;;;;;;;16.13;12.32;;;;;;;2.96;79.38;97953.78;5108924;28;20051;-71
2022/12/10 06:21:07;;;;;;;15.77;11.95;;;;;;;2.95;79.31;97950.34;5108337;28;20066;-71
2022/12/10 06:23:35;;;;;;;16.42;11.93;;;;;;;2.95;79.34;97952.94;5108970;28;20043;-70
2022/12/10 06:26:04;;;;;;;15.40;12.10;;;;;;;2.95;79.36;97944.25;5108895;28;20093;-71
2022/12/10 06:28:31;;;;;;;14.40;11.43;;;;;;;2.94;79.34;97946.03;5109013;28;20085;-71
2022/12/10 06:30:58;;;;;;;14.32;12.00;;;;;;;2.93;79.19;97952.16;5108608;28;20036;-71
2022/12/10 06:33:25;;;;;;;18.02;10.15;;;;;;;2.74;79.23;97928.63;5108965;28;20231;-71
2022/12/10 06:35:54;;;;;;;17.30;11.75;;;;;;;2.92;79.20;97968.78;5108355;28;20052;-71
2022/12/10 06:38:21;;;;;;;15.32;12.73;;;;;;;2.91;79.25;97974.09;5108314;28;20051;-71
2022/12/10 06:40:47;;;;;;;18.48;13.55;;;;;;;2.93;79.20;97985.34;5108118;28;20300;-71
2022/12/10 06:43:14;;;;;;;17.60;13.48;;;;;;;2.72;79.22;97947.94;5108421;28;20089;-71
2022/12/10 06:45:41;;;;;;;17.20;12.73;;;;;;;2.91;79.01;97980.19;5108757;28;20149;-71
2022/12/10 06:48:08;;;;;;;16.85;12.20;;;;;;;2.88;78.94;97983.78;5108702;28;20242;-70
2022/12/10 06:50:36;;;;;;;18.10;13.40;;;;;;;2.88;79.06;97965.47;5108437;28;20133;-71
2022/12/10 06:53:04;;;;;;;18.65;13.48;;;;;;;2.90;79.11;97962.78;5108464;28;20043;-71
2022/12/10 06:55:31;;;;;;;16.27;12.40;;;;;;;2.87;78.84;97969.00;5108531;28;20048;-72
2022/12/10 06:57:58;;;;;;;15.48;11.93;;;;;;;2.87;78.92;97976.00;5108256;28;20043;-73
2022/12/10 07:00:25;;;;;;;17.85;13.15;;;;;;;2.87;78.87;97970.78;5108179;28;20040;-73
2022/12/10 07:02:52;;;;;;;16.17;13.35;;;;;;;2.87;78.79;97963.78;5108181;28;20097;-73
2022/12/10 07:05:18;;;;;;;16.52;12.60;;;;;;;2.87;78.65;97960.31;5107831;28;20308;-72
2022/12/10 07:07:45;;;;;;;14.52;11.60;;;;;;;2.86;78.75;97956.84;5107818;28;20044;-73
2022/12/10 07:10:14;;;;;;;15.35;11.70;;;;;;;2.87;78.86;97958.53;5108286;28;20094;-72
2022/12/10 07:12:40;;;;;;;15.60;12.23;;;;;;;2.87;78.85;97960.31;5108249;28;20051;-73
2022/12/10 07:15:08;;;;;;;15.80;12.73;;;;;;;2.13;79.02;97866.03;5107208;28;20036;-73
2022/12/10 07:17:35;;;;;;;15.90;13.55;;;;;;;2.85;78.92;97968.22;5106765;28;20304;-73
2022/12/10 07:20:02;;;;;;;16.33;12.23;;;;;;;2.89;79.05;97963.69;5107483;28;20072;-72
2022/12/10 07:22:29;;;;;;;19.55;13.88;;;;;;;2.90;78.97;97968.00;5107641;28;20291;-72
2022/12/10 07:24:55;;;;;;;18.23;13.23;;;;;;;2.91;78.92;97966.25;5107336;28;20101;-73
2022/12/10 07:27:23;;;;;;;17.27;13.95;;;;;;;2.89;78.76;97963.69;5107648;28;20044;-72
2022/12/10 07:29:50;;;;;;;17.60;12.77;;;;;;;2.87;78.73;97953.31;5107896;28;20081;-73
2022/12/10 07:32:17;;;;;;;18.63;14.00;;;;;;;2.91;78.78;97945.31;5106488;28;20043;-73
2022/12/10 07:34:44;;;;;;;20.35;16.40;;;;;;;2.90;78.84;97947.09;5106907;28;20109;-73
2022/12/10 07:37:11;;;;;;;18.85;14.35;;;;;;;2.92;78.53;97936.53;5107478;28;20044;-73
2022/12/10 07:39:37;;;;;;;21.17;15.18;;;;;;;2.92;78.48;97940.00;5107060;28;20056;-73
2022/12/10 07:42:04;;;;;;;20.45;15.32;;;;;;;2.93;78.68;97938.25;5106546;28;20048;-73
2022/12/10 07:44:32;;;;;;;20.80;15.38;;;;;;;2.91;78.64;97940.09;5107603;28;20085;-73
2022/12/10 07:46:59;;;;;;;19.85;15.07;;;;;;;2.91;78.67;97938.31;5106784;28;20258;-73
2022/12/10 07:49:25;;;;;;;18.73;13.80;;;;;;;2.93;78.71;97928.63;5106559;28;20044;-73
2022/12/10 07:51:53;;;;;;;17.85;14.52;;;;;;;2.94;78.63;97926.84;5107267;28;20157;-72
2022/12/10 07:54:19;;;;;;;18.67;14.20;;;;;;;2.93;78.51;97920.78;5106563;28;20044;-72
2022/12/10 07:56:46;;;;;;;21.27;15.23;;;;;;;2.93;78.58;97919.91;5106205;28;20070;-72
2022/12/10 07:59:13;;;;;;;22.58;14.50;;;;;;;2.85;78.37;97905.44;5107026;28;20231;-73
2022/12/10 08:01:42;;;;;;;19.80;14.73;;;;;;;2.94;78.38;97919.00;5106213;28;20109;-73
2022/12/10 08:04:08;;;;;;;20.05;14.65;;;;;;;2.93;78.15;97928.63;5107188;28;20040;-73
2022/12/10 08:06:36;;;;;;;19.25;14.55;;;;;;;2.93;78.30;97931.22;5106798;28;20238;-72
2022/12/10 08:09:02;;;;;;;19.42;14.32;;;;;;;2.93;78.45;97936.47;5106840;28;20055;-72
2022/12/10 08:11:29;;;;;;;17.60;13.25;;;;;;;2.96;78.50;97948.56;5106248;28;20085;-72
2022/12/10 08:13:56;;;;;;;20.48;15.05;;;;;;;-1.27;78.08;97282.94;5106705;28;20044;-73
2022/12/10 08:16:26;;;;;;;20.98;15.63;;;;;;;2.96;78.32;97943.34;5106931;28;20052;-73
2022/12/10 08:18:55;;;;;;;21.52;15.32;;;;;;;2.94;78.18;97943.41;5105976;28;20044;-73
2022/12/10 08:21:24;;;;;;;20.88;15.95;;;;;;;2.71;78.18;97901.75;5105968;28;20046;-72
2022/12/10 08:23:51;;;;;;;20.65;16.13;;;;;;;2.94;78.32;97943.41;5106755;28;20056;-73
2022/12/10 08:26:20;;;;;;;20.58;15.13;;;;;;;2.95;78.33;97939.88;5106614;28;20044;-73
2022/12/10 08:28:48;;;;;;;21.02;14.95;;;;;;;2.95;78.18;97939.88;5106708;28;20058;-70
2022/12/10 08:31:16;;;;;;;21.77;16.48;;;;;;;2.96;78.30;97940.72;5105209;28;20044;-71
2022/12/10 08:33:43;;;;;;;21.67;14.75;;;;;;;2.98;78.34;97946.72;5105097;28;20230;-71
2022/12/10 08:36:14;;;;;;;20.70;15.38;;;;;;;2.98;78.17;97944.09;5105775;28;20056;-71
2022/12/10 08:38:41;;;;;;;20.38;14.82;;;;;;;3.01;78.28;97949.19;5105845;28;20300;-71
2022/12/10 08:41:10;;;;;;;20.88;13.98;;;;;;;2.66;77.93;97903.75;5105946;28;20036;-72
2022/12/10 08:43:37;;;;;;;21.65;15.75;;;;;;;2.99;78.34;97951.88;5106362;28;20322;-71
2022/12/10 08:46:04;;;;;;;21.38;15.88;;;;;;;2.28;78.11;97830.53;5106089;28;20105;-72
2022/12/10 08:48:31;;;;;;;22.60;16.27;;;;;;;2.99;78.37;97951.88;5105028;28;20338;-72
2022/12/10 08:50:58;;;;;;;18.08;14.85;;;;;;;3.00;78.28;97943.13;5106324;28;20089;-71
2022/12/10 08:53:26;;;;;;;20.27;15.60;;;;;;;3.02;78.30;97945.66;5104754;28;20047;-72
2022/12/10 08:55:54;;;;;;;20.88;15.07;;;;;;;2.78;78.15;97909.25;5104781;28;20040;-72
2022/12/10 08:58:21;;;;;;;19.33;14.93;;;;;;;3.03;78.05;97958.69;5104946;28;20051;-72
2022/12/10 09:00:49;;;;;;;22.45;16.25;;;;;;;3.05;78.22;97958.59;5105627;28;20052;-72
2022/12/10 09:03:15;;;;;;;21.95;17.63;;;;;;;3.06;78.01;97965.53;5105573;28;20101;-72
2022/12/10 09:05:43;;;;;;;20.92;16.20;;;;;;;2.87;77.89;97921.06;5106148;28;20051;-72
2022/12/10 09:08:10;;;;;;;21.70;15.50;;;;;;;3.06;77.96;97963.75;5105614;28;20043;-72
2022/12/10 09:10:38;;;;;;;19.02;15.80;;;;;;;2.53;77.83;97896.47;5105794;28;20040;-72
2022/12/10 09:13:05;;;;;;;21.05;15.15;;;;;;;3.08;77.78;97961.06;5105513;28;20036;-72
2022/12/10 09:15:32;;;;;;;20.20;15.88;;;;;;;3.09;77.82;97968.84;5105944;28;20235;-72
2022/12/10 09:17:59;;;;;;;19.40;14.55;;;;;;;3.11;77.83;97971.41;5105529;28;20322;-72
2022/12/10 09:20:25;;;;;;;22.50;16.25;;;;;;;3.13;77.76;97970.41;5105467;28;20242;-72
2022/12/10 09:22:53;;;;;;;22.27;16.23;;;;;;;3.15;77.66;97975.56;5105662;28;20097;-72
2022/12/10 09:25:21;;;;;;;23.65;18.15;;;;;;;3.16;77.67;97977.28;5105788;28;20044;-72
2022/12/10 09:27:49;;;;;;;23.00;16.25;;;;;;;3.15;77.53;97965.94;5105598;28;20048;-72
2022/12/10 09:30:17;;;;;;;21.85;15.50;;;;;;;3.15;77.27;97957.25;5105729;28;20051;-72
2022/12/10 09:32:43;;;;;;;21.10;16.58;;;;;;;3.15;77.33;97947.63;5105602;28;20099;-72
2022/12/10 09:35:10;;;;;;;20.52;14.73;;;;;;;2.72;77.21;97875.53;5105115;28;20063;-72
2022/12/10 09:37:37;;;;;;;21.20;15.38;;;;;;;3.14;77.40;97947.69;5105334;28;20346;-73
2022/12/10 09:40:04;;;;;;;21.37;15.93;;;;;;;3.14;76.93;97950.31;5109751;28;20085;-72
2022/12/10 09:42:41;;;;;;;18.88;15.57;;;;;;;3.10;76.84;97938.28;5109018;28;20046;-73
2022/12/10 09:45:18;;;;;;;19.83;14.95;;;;;;;3.13;76.85;97948.63;5109738;28;20043;-72
2022/12/10 09:47:54;;;;;;;19.63;13.95;;;;;;;2.59;76.96;97863.09;5109358;28;20345;-72
2022/12/10 09:50:27;;;;;;;21.13;14.18;;;;;;;3.17;76.96;97956.25;5108318;28;20292;-72
2022/12/10 09:52:57;;;;;;;21.30;15.23;;;;;;;3.19;76.94;97966.66;5108981;28;20044;-73
2022/12/10 09:55:33;;;;;;;18.77;14.70;;;;;;;3.16;76.72;97959.78;5108177;28;20122;-72
2022/12/10 09:58:03;;;;;;;20.25;15.43;;;;;;;3.17;76.79;97976.34;5109455;28;20050;-72
2022/12/10 10:00:36;;;;;;;20.25;14.60;;;;;;;3.17;76.49;97971.13;5109076;28;20067;-73
2022/12/10 10:03:03;;;;;;;20.98;16.33;;;;;;;3.07;76.84;97947.13;5108620;28;20063;-72
2022/12/10 10:05:32;;;;;;;19.77;15.50;;;;;;;3.20;76.72;97973.59;5108649;28;20055;-72
2022/12/10 10:08:02;;;;;;;22.00;16.75;;;;;;;3.22;76.72;97965.66;5108921;28;20052;-73
2022/12/10 10:10:32;;;;;;;21.63;16.42;;;;;;;3.23;76.82;97951.66;5109144;28;20338;-72
2022/12/10 10:13:02;;;;;;;22.08;15.20;;;;;;;3.03;76.63;97919.41;5108000;28;20048;-72
2022/12/10 10:15:33;;;;;;;20.55;15.75;;;;;;;3.23;76.71;97951.66;5109122;28;20046;-72
2022/12/10 10:18:06;;;;;;;20.00;15.05;;;;;;;3.11;76.90;97927.75;5107718;28;20085;-73
2022/12/10 10:20:33;;;;;;;21.35;15.40;;;;;;;3.25;76.93;97948.03;5107598;28;20040;-72
2022/12/10 10:23:01;;;;;;;20.33;15.23;;;;;;;2.60;76.81;97831.63;5108727;28;20055;-72
2022/12/10 10:25:28;;;;;;;20.50;14.50;;;;;;;3.28;76.87;97940.03;5108735;28;20211;-73
2022/12/10 10:27:55;;;;;;;21.17;16.13;;;;;;;3.29;76.82;97944.34;5108384;28;20215;-72
2022/12/10 10:30:24;;;;;;;21.38;16.40;;;;;;;3.30;76.82;97940.81;5108414;28;20048;-72
2022/12/10 10:32:54;;;;;;;20.60;15.60;;;;;;;3.31;76.62;97941.66;5107715;28;20040;-72
2022/12/10 10:35:25;;;;;;;21.88;16.55;;;;;;;3.03;76.62;97888.00;5107955;28;20211;-73
2022/12/10 10:37:57;;;;;;;21.60;15.88;;;;;;;3.31;76.66;97937.25;5107000;28;20212;-72
2022/12/10 10:40:26;;;;;;;21.20;15.65;;;;;;;3.33;76.57;97934.56;5107285;28;20047;-73
2022/12/10 10:42:56;;;;;;;22.52;16.55;;;;;;;3.35;77.01;97925.72;5108275;28;20070;-72
2022/12/10 10:45:42;;;;;;;22.40;16.35;;;;;;;3.36;76.08;97930.03;5108099;28;20173;-73
2022/12/10 10:48:14;;;;;;;21.50;15.40;;;;;;;3.35;76.37;97930.97;5107895;28;20051;-72
2022/12/10 10:50:43;;;;;;;21.10;15.70;;;;;;;3.24;76.53;97908.84;5106359;28;20040;-72
2022/12/10 10:53:25;;;;;;;23.67;16.48;;;;;;;3.38;75.97;97928.19;5107336;28;20078;-72
2022/12/10 10:55:53;;;;;;;22.95;16.52;;;;;;;3.40;76.37;97926.34;5107995;28;20055;-73
2022/12/10 10:58:20;;;;;;;24.50;16.95;;;;;;;3.42;76.46;97921.88;5108247;28;20051;-73
2022/12/10 11:00:56;;;;;;;22.33;16.60;;;;;;;3.42;75.97;97915.78;5107717;28;20081;-72
2022/12/10 11:03:24;;;;;;;23.63;18.45;;;;;;;3.44;76.29;97906.09;5106387;28;20058;-72
2022/12/10 11:05:51;;;;;;;21.17;16.10;;;;;;;3.46;76.15;97899.84;5107848;28;20054;-72
2022/12/10 11:08:20;;;;;;;20.05;15.73;;;;;;;3.49;76.32;97893.59;5107996;28;20185;-73
2022/12/10 11:10:52;;;;;;;19.80;16.00;;;;;;;3.48;75.84;97892.75;5108031;28;20071;-73
2022/12/10 11:13:23;;;;;;;22.13;15.65;;;;;;;3.50;75.89;97888.28;5107758;28;20291;-73
2022/12/10 11:15:56;;;;;;;21.67;15.35;;;;;;;3.27;75.58;97851.06;5107277;28;20047;-72
2022/12/10 11:18:27;;;;;;;24.73;16.60;;;;;;;3.39;75.67;97853.09;5107881;28;20156;-73
2022/12/10 11:21:01;;;;;;;20.05;15.98;;;;;;;3.57;75.69;97886.22;5106453;28;20296;-72
2022/12/10 11:23:29;;;;;;;20.48;15.35;;;;;;;3.60;75.91;97890.47;5107772;28;20105;-72
2022/12/10 11:26:03;;;;;;;22.33;17.33;;;;;;;3.61;75.49;97879.06;5107525;28;20089;-72
2022/12/10 11:28:45;;;;;;;22.67;16.63;;;;;;;3.63;75.31;97870.19;5107754;28;20036;-73
2022/12/10 11:31:28;;;;;;;21.70;16.08;;;;;;;3.63;74.98;97864.94;5107382;28;20062;-73
2022/12/10 11:34:04;;;;;;;22.27;14.77;;;;;;;3.63;75.23;97866.72;5107184;28;20280;-73
2022/12/10 11:36:42;;;;;;;22.08;16.73;;;;;;;3.38;74.86;97825.19;5107274;28;20101;-72
2022/12/10 11:39:21;;;;;;;23.92;17.30;;;;;;;3.63;74.98;97867.56;5106351;28;20043;-72
2022/12/10 11:41:53;;;;;;;23.42;16.83;;;;;;;3.64;75.29;97855.31;5106866;28;20300;-72
2022/12/10 11:44:28;;;;;;;23.23;17.67;;;;;;;3.64;75.14;97866.66;5107380;28;20219;-73
2022/12/10 11:47:15;;;;;;;23.48;16.38;;;;;;;3.65;74.64;97862.25;5107259;28;20043;-72
2022/12/10 11:49:55;;;;;;;25.92;17.15;;;;;;;3.64;74.85;97858.78;5107071;28;20040;-73
2022/12/10 11:52:45;;;;;;;22.60;17.38;;;;;;;3.66;74.43;97859.56;5106955;28;20295;-73